Time;durP1;ratioP1;P1;durP2;ratioP2;P2;SDS_P1;SDS_P2;PMS_P1;PMS_P2;Temp;Humidity;BMP_temperature;BMP_pressure;BME280_temperature;BME280_humidity;BME280_pressure;Samples;Min_cycle;Max_cycle;Signal;HPM_P1;HPM_P2
2023/11/23 00:02:17;;;;;;;8.35;4.60;;;6.20;99.90;;;;;;5027742;28;20137;-78
2023/11/23 00:04:43;;;;;;;10.60;5.13;;;6.10;99.90;;;;;;5030850;28;20044;-77
2023/11/23 00:07:08;;;;;;;9.10;4.97;;;6.10;99.90;;;;;;5013550;28;20229;-77
2023/11/23 00:09:34;;;;;;;9.95;6.18;;;6.10;99.90;;;;;;5026735;28;20396;-77
2023/11/23 00:11:59;;;;;;;10.85;5.03;;;6.10;99.90;;;;;;5030421;28;20028;-77
2023/11/23 00:14:25;;;;;;;10.38;5.40;;;6.10;99.90;;;;;;5045218;28;20400;-77
2023/11/23 00:16:51;;;;;;;18.67;6.50;;;6.10;99.90;;;;;;5028031;28;20471;-79
2023/11/23 00:19:16;;;;;;;9.93;5.63;;;6.10;99.90;;;;;;5046686;28;20033;-79
2023/11/23 00:21:42;;;;;;;16.45;8.68;;;6.10;99.90;;;;;;5046370;28;20041;-79
2023/11/23 00:24:08;;;;;;;15.05;7.78;;;6.10;99.90;;;;;;5027614;28;20040;-80
2023/11/23 00:26:33;;;;;;;14.27;5.35;;;6.00;99.90;;;;;;5044586;28;20124;-77
2023/11/23 00:28:59;;;;;;;16.00;6.85;;;6.00;99.90;;;;;;5046622;28;20400;-77
2023/11/23 00:31:25;;;;;;;10.57;4.72;;;6.10;99.90;;;;;;5049013;28;20094;-78
2023/11/23 00:33:50;;;;;;;18.70;9.05;;;6.00;99.90;;;;;;5013086;28;20460;-78
2023/11/23 00:36:16;;;;;;;15.25;7.03;;;6.00;99.90;;;;;;5026945;28;20033;-78
2023/11/23 00:38:41;;;;;;;15.63;8.52;;;6.00;99.90;;;;;;5027151;28;20029;-78
2023/11/23 00:41:07;;;;;;;11.73;6.03;;;6.00;99.90;;;;;;5044997;28;20526;-78
2023/11/23 00:43:34;;;;;;;13.90;5.28;;;6.10;99.90;;;;;;5044670;28;20395;-78
2023/11/23 00:46:00;;;;;;;18.23;6.88;;;6.00;99.90;;;;;;5011232;28;20040;-78
2023/11/23 00:48:27;;;;;;;11.45;6.10;;;6.00;99.90;;;;;;5028795;28;20045;-78
2023/11/23 00:50:54;;;;;;;12.40;7.03;;;6.10;99.90;;;;;;5028855;28;20477;-77
2023/11/23 00:53:21;;;;;;;17.75;8.80;;;6.00;99.90;;;;;;5027584;28;20507;-78
2023/11/23 00:55:46;;;;;;;16.85;8.13;;;6.00;99.90;;;;;;5028343;28;20025;-78
2023/11/23 00:58:12;;;;;;;17.25;7.10;;;6.10;99.90;;;;;;5027923;28;20025;-78
2023/11/23 01:00:37;;;;;;;20.77;10.18;;;6.10;99.90;;;;;;5046290;28;20409;-78
2023/11/23 01:03:03;;;;;;;15.30;7.85;;;6.10;99.90;;;;;;5046048;28;20079;-78
2023/11/23 01:05:29;;;;;;;14.23;7.18;;;6.00;99.90;;;;;;5044570;28;20042;-78
2023/11/23 01:07:56;;;;;;;12.15;6.55;;;6.00;99.90;;;;;;5031150;28;20044;-77
2023/11/23 01:10:21;;;;;;;14.55;7.35;;;6.10;99.90;;;;;;5028401;28;20043;-78
2023/11/23 01:12:48;;;;;;;18.50;8.70;;;6.10;99.90;;;;;;5044602;28;20329;-78
2023/11/23 01:15:14;;;;;;;20.42;11.25;;;6.10;99.90;;;;;;5027582;28;20026;-78
2023/11/23 01:17:40;;;;;;;19.65;7.75;;;6.10;99.90;;;;;;5039695;28;20051;-78
2023/11/23 01:20:07;;;;;;;9.00;4.55;;;6.00;99.90;;;;;;5044629;28;20043;-78
2023/11/23 01:22:32;;;;;;;23.40;6.28;;;6.10;99.90;;;;;;5040732;28;20041;-78
2023/11/23 01:24:58;;;;;;;20.15;8.45;;;6.00;99.90;;;;;;5043846;28;20029;-78
2023/11/23 01:27:23;;;;;;;18.95;9.85;;;6.10;99.90;;;;;;5028607;28;20576;-79
2023/11/23 01:29:49;;;;;;;20.35;9.80;;;6.00;99.90;;;;;;5045858;28;20558;-79
2023/11/23 01:32:15;;;;;;;21.45;8.18;;;6.00;99.90;;;;;;5008724;28;20025;-79
2023/11/23 01:34:40;;;;;;;12.05;5.72;;;6.00;99.90;;;;;;5025734;28;20036;-79
2023/11/23 01:37:06;;;;;;;19.60;9.95;;;6.00;99.90;;;;;;5043428;28;20052;-79
2023/11/23 01:39:31;;;;;;;18.48;9.90;;;6.00;99.90;;;;;;5026912;28;20032;-79
2023/11/23 01:41:57;;;;;;;10.75;5.30;;;6.00;99.90;;;;;;5027236;28;20029;-79
2023/11/23 01:44:22;;;;;;;19.42;10.80;;;6.00;99.90;;;;;;5044552;28;20110;-79
2023/11/23 01:46:48;;;;;;;20.13;8.15;;;6.00;99.90;;;;;;5042535;28;20151;-79
2023/11/23 01:49:13;;;;;;;15.77;7.43;;;6.00;99.90;;;;;;5040436;28;20022;-79
2023/11/23 01:51:39;;;;;;;17.27;7.97;;;6.00;99.90;;;;;;5044750;28;20369;-79
2023/11/23 01:54:05;;;;;;;18.95;9.63;;;6.00;99.90;;;;;;5041228;28;20045;-79
2023/11/23 01:56:30;;;;;;;20.35;10.23;;;6.00;99.90;;;;;;5006872;28;20037;-79
2023/11/23 01:58:56;;;;;;;15.10;7.03;;;6.00;99.90;;;;;;5009408;28;20033;-79
2023/11/23 02:01:22;;;;;;;20.58;9.52;;;6.00;99.90;;;;;;5040306;28;20477;-79
2023/11/23 02:03:48;;;;;;;20.25;10.10;;;6.10;99.90;;;;;;5024281;28;20040;-79
2023/11/23 02:06:14;;;;;;;23.02;11.27;;;6.10;99.90;;;;;;5039902;28;20040;-79
2023/11/23 02:08:39;;;;;;;14.07;7.47;;;6.00;99.90;;;;;;5046031;28;20036;-79
2023/11/23 02:11:06;;;;;;;8.07;4.63;;;6.00;99.90;;;;;;5030431;28;20040;-79
2023/11/23 02:13:31;;;;;;;15.15;8.20;;;6.00;99.90;;;;;;5045591;28;20128;-79
2023/11/23 02:15:57;;;;;;;9.75;5.00;;;6.00;99.90;;;;;;5042797;28;20033;-79
2023/11/23 02:18:23;;;;;;;15.75;8.05;;;6.00;99.90;;;;;;5026647;28;20033;-79
2023/11/23 02:20:48;;;;;;;21.48;11.35;;;6.10;99.90;;;;;;5042520;28;20037;-79
2023/11/23 02:23:14;;;;;;;21.17;11.30;;;6.10;99.90;;;;;;5027433;28;20032;-79
2023/11/23 02:25:39;;;;;;;18.45;8.25;;;6.10;99.90;;;;;;5030111;28;20511;-79
2023/11/23 02:28:06;;;;;;;18.42;8.95;;;6.00;99.90;;;;;;5041847;28;20033;-79
2023/11/23 02:30:32;;;;;;;23.83;9.98;;;6.10;99.90;;;;;;5025623;28;20040;-79
2023/11/23 02:33:01;;;;;;;21.77;9.10;;;6.10;99.90;;;;;;5042499;28;20033;-79
2023/11/23 02:35:26;;;;;;;12.93;6.15;;;6.10;99.90;;;;;;5027466;28;20029;-79
2023/11/23 02:37:52;;;;;;;17.23;9.35;;;6.10;99.90;;;;;;5025595;28;20044;-79
2023/11/23 02:40:18;;;;;;;17.80;9.93;;;6.10;99.90;;;;;;5043655;28;20036;-79
2023/11/23 02:42:43;;;;;;;18.35;7.88;;;6.10;99.90;;;;;;5042162;28;20116;-79
2023/11/23 02:45:09;;;;;;;20.42;9.63;;;6.10;99.90;;;;;;5026817;28;20044;-79
2023/11/23 02:47:35;;;;;;;19.35;8.02;;;6.20;99.90;;;;;;5029166;28;20573;-79
2023/11/23 02:50:01;;;;;;;14.57;6.18;;;6.20;99.90;;;;;;5044380;28;20079;-79
2023/11/23 02:52:27;;;;;;;9.52;5.45;;;6.20;99.90;;;;;;5040251;28;20041;-79
2023/11/23 02:54:53;;;;;;;24.20;9.10;;;6.20;99.90;;;;;;5040371;28;20044;-79
2023/11/23 02:57:18;;;;;;;9.95;5.60;;;6.20;99.90;;;;;;5023145;28;20033;-79
2023/11/23 02:59:44;;;;;;;17.05;6.78;;;6.20;99.90;;;;;;5047315;28;20037;-79
2023/11/23 03:02:09;;;;;;;13.38;7.28;;;6.30;99.90;;;;;;5030808;28;20029;-79
2023/11/23 03:04:35;;;;;;;19.23;8.25;;;6.30;99.90;;;;;;5029575;28;20132;-80
2023/11/23 03:07:00;;;;;;;18.38;8.50;;;6.30;99.90;;;;;;5031893;28;20072;-79
2023/11/23 03:09:26;;;;;;;27.83;14.30;;;6.30;99.90;;;;;;5046542;28;20049;-79
2023/11/23 03:11:51;;;;;;;19.48;9.68;;;6.30;99.90;;;;;;5029328;28;20041;-79
2023/11/23 03:14:17;;;;;;;17.25;9.45;;;6.30;99.90;;;;;;5044986;28;20037;-79
2023/11/23 03:16:44;;;;;;;23.92;11.98;;;6.40;99.90;;;;;;5048218;28;20028;-79
2023/11/23 03:19:09;;;;;;;23.67;12.60;;;6.40;99.90;;;;;;5030186;28;20559;-79
2023/11/23 03:21:35;;;;;;;17.77;7.70;;;6.40;99.90;;;;;;5013489;28;20030;-79
2023/11/23 03:24:01;;;;;;;19.80;12.02;;;6.40;99.90;;;;;;5048576;28;20036;-80
2023/11/23 03:26:26;;;;;;;16.02;9.25;;;6.40;99.90;;;;;;5031302;28;20476;-80
2023/11/23 03:28:52;;;;;;;26.02;10.95;;;6.40;99.90;;;;;;5025857;28;20041;-79
2023/11/23 03:31:18;;;;;;;19.55;9.25;;;6.50;99.90;;;;;;5032092;28;20759;-79
2023/11/23 03:33:43;;;;;;;22.63;12.68;;;6.50;99.90;;;;;;5045770;28;20348;-80
2023/11/23 03:36:09;;;;;;;19.63;9.70;;;6.50;99.90;;;;;;5016602;28;20041;-80
2023/11/23 03:38:34;;;;;;;15.68;7.95;;;6.50;99.90;;;;;;5027505;28;20057;-80
2023/11/23 03:41:00;;;;;;;20.27;9.45;;;6.50;99.90;;;;;;5031342;28;20066;-80
2023/11/23 03:43:26;;;;;;;27.60;14.65;;;6.60;99.90;;;;;;5031321;28;20039;-80
2023/11/23 03:45:51;;;;;;;15.00;5.78;;;6.60;99.90;;;;;;5046724;28;20119;-80
2023/11/23 03:48:18;;;;;;;23.27;12.77;;;6.60;99.90;;;;;;5015253;28;21298;-80
2023/11/23 03:50:43;;;;;;;13.88;7.28;;;6.60;99.90;;;;;;5042548;28;20488;-80
2023/11/23 03:53:09;;;;;;;24.35;11.43;;;6.70;99.90;;;;;;5030896;28;20029;-80
2023/11/23 03:55:35;;;;;;;18.58;11.95;;;6.60;99.90;;;;;;5029351;28;20025;-79
2023/11/23 03:58:01;;;;;;;20.75;10.63;;;6.70;99.90;;;;;;5029771;28;20033;-80
2023/11/23 04:00:27;;;;;;;25.27;12.32;;;6.70;99.90;;;;;;5028102;28;20409;-80
2023/11/23 04:02:53;;;;;;;17.90;8.90;;;6.70;99.90;;;;;;5029788;28;20041;-80
2023/11/23 04:05:19;;;;;;;25.60;9.13;;;6.70;99.90;;;;;;5045627;28;20036;-80
2023/11/23 04:07:46;;;;;;;18.17;9.70;;;6.80;99.90;;;;;;5012467;28;20494;-80
2023/11/23 04:10:12;;;;;;;14.35;8.50;;;6.80;99.90;;;;;;5031830;28;20029;-80
2023/11/23 04:12:38;;;;;;;31.30;15.32;;;6.80;99.90;;;;;;5044367;28;20040;-80
2023/11/23 04:15:04;;;;;;;23.55;13.23;;;6.80;99.90;;;;;;5046431;28;20036;-80
2023/11/23 04:17:29;;;;;;;13.30;7.22;;;6.80;99.90;;;;;;5043184;28;20669;-80
2023/11/23 04:19:55;;;;;;;18.98;8.30;;;6.80;99.90;;;;;;5029559;28;20036;-81
2023/11/23 04:22:24;;;;;;;32.13;14.15;;;6.90;99.90;;;;;;5014238;28;20033;-80
2023/11/23 04:24:50;;;;;;;27.42;12.43;;;6.90;99.90;;;;;;5045347;28;20166;-80
2023/11/23 04:27:15;;;;;;;23.50;12.38;;;6.90;99.90;;;;;;5045155;28;20498;-80
2023/11/23 04:29:41;;;;;;;15.82;8.68;;;6.90;99.90;;;;;;5043536;28;20033;-80
2023/11/23 04:32:06;;;;;;;13.60;7.85;;;7.00;99.90;;;;;;5041438;28;20056;-80
2023/11/23 04:34:33;;;;;;;19.80;11.32;;;6.90;99.90;;;;;;5039512;28;20064;-80
2023/11/23 04:36:59;;;;;;;14.52;6.95;;;7.00;99.90;;;;;;5045331;28;20044;-80
2023/11/23 04:39:25;;;;;;;28.38;13.48;;;7.00;99.90;;;;;;5028458;28;20558;-80
2023/11/23 04:41:50;;;;;;;32.25;15.95;;;7.00;99.90;;;;;;5014798;28;20082;-81
2023/11/23 04:44:16;;;;;;;23.58;10.57;;;7.00;99.90;;;;;;5044933;28;20489;-80
2023/11/23 04:46:41;;;;;;;32.08;13.23;;;7.10;99.90;;;;;;5038192;28;20521;-81
2023/11/23 04:49:07;;;;;;;15.50;8.10;;;7.10;99.90;;;;;;5012220;28;20040;-80
2023/11/23 04:51:32;;;;;;;22.83;12.32;;;7.10;99.90;;;;;;5003271;28;20124;-80
2023/11/23 04:53:58;;;;;;;16.73;8.77;;;7.10;99.90;;;;;;5022078;28;20033;-80
2023/11/23 04:56:24;;;;;;;21.58;10.38;;;7.10;99.90;;;;;;5011506;28;20091;-80
2023/11/23 04:58:49;;;;;;;17.33;9.43;;;7.20;99.90;;;;;;5011575;28;20534;-80
2023/11/23 05:01:15;;;;;;;26.52;14.23;;;7.20;99.90;;;;;;5020305;28;20053;-81
2023/11/23 05:03:40;;;;;;;21.20;10.90;;;7.20;99.90;;;;;;5027821;28;20025;-81
2023/11/23 05:06:10;;;;;;;28.25;9.82;;;7.20;99.90;;;;;;5045288;28;20068;-80
2023/11/23 05:08:36;;;;;;;24.58;12.52;;;7.20;99.90;;;;;;5011411;28;20547;-81
2023/11/23 05:11:03;;;;;;;36.28;10.35;;;7.20;99.90;;;;;;5044757;28;20045;-81
2023/11/23 05:13:29;;;;;;;21.65;13.40;;;7.20;99.90;;;;;;5030067;28;20492;-80
2023/11/23 05:15:54;;;;;;;28.20;13.93;;;7.20;99.90;;;;;;5029920;28;20057;-80
2023/11/23 05:18:22;;;;;;;27.80;11.65;;;7.20;99.90;;;;;;5027614;28;20029;-80
2023/11/23 05:20:48;;;;;;;22.38;10.55;;;7.20;99.90;;;;;;5026956;28;20122;-79
2023/11/23 05:23:13;;;;;;;17.02;8.48;;;7.30;99.90;;;;;;5011964;28;20033;-80
2023/11/23 05:25:40;;;;;;;25.20;12.77;;;7.30;99.90;;;;;;5043460;28;20033;-80
2023/11/23 05:28:06;;;;;;;24.50;12.02;;;7.30;99.90;;;;;;5045435;28;20041;-80
2023/11/23 05:30:32;;;;;;;25.08;10.88;;;7.30;99.90;;;;;;5026858;28;20029;-80
2023/11/23 05:33:00;;;;;;;26.90;14.88;;;7.40;99.90;;;;;;5030941;28;20064;-81
2023/11/23 05:35:26;;;;;;;15.60;8.60;;;7.40;99.90;;;;;;5015051;28;20029;-80
2023/11/23 05:37:51;;;;;;;25.92;9.07;;;7.40;99.90;;;;;;5041223;28;20040;-80
2023/11/23 05:40:17;;;;;;;19.25;9.55;;;7.40;99.90;;;;;;5026748;28;20484;-80
2023/11/23 05:42:43;;;;;;;25.25;13.77;;;7.40;99.90;;;;;;5012082;28;20040;-80
2023/11/23 05:45:09;;;;;;;34.38;16.23;;;7.40;99.90;;;;;;5042894;28;20029;-78
2023/11/23 05:47:35;;;;;;;27.80;13.93;;;7.40;99.90;;;;;;5045126;28;20067;-79
2023/11/23 05:50:03;;;;;;;18.77;10.40;;;7.50;99.90;;;;;;5010252;28;21263;-78
2023/11/23 05:52:31;;;;;;;24.42;12.30;;;7.50;99.90;;;;;;5028078;28;20040;-79
2023/11/23 05:54:57;;;;;;;22.80;13.55;;;7.50;99.90;;;;;;5042926;28;20493;-78
2023/11/23 05:57:26;;;;;;;31.40;15.07;;;7.50;99.90;;;;;;5024839;28;20043;-78
2023/11/23 05:59:51;;;;;;;24.85;10.80;;;7.60;99.90;;;;;;5020718;28;20075;-78
2023/11/23 06:02:20;;;;;;;18.30;10.13;;;7.50;99.90;;;;;;5013084;28;20492;-79
2023/11/23 06:04:48;;;;;;;16.85;8.95;;;7.60;99.90;;;;;;5041738;28;20044;-80
2023/11/23 06:07:14;;;;;;;25.15;12.82;;;7.60;99.90;;;;;;5017358;28;20067;-78
2023/11/23 06:09:43;;;;;;;18.58;9.40;;;7.60;99.90;;;;;;5026466;28;20029;-78
2023/11/23 06:12:09;;;;;;;29.23;16.48;;;7.60;99.90;;;;;;5025222;28;20084;-78
2023/11/23 06:14:38;;;;;;;32.53;16.02;;;7.60;99.90;;;;;;5021045;28;20842;-78
2023/11/23 06:17:10;;;;;;;28.48;16.55;;;7.70;99.90;;;;;;5044252;28;20446;-78
2023/11/23 06:19:36;;;;;;;36.88;11.32;;;7.70;99.90;;;;;;5044607;28;20040;-78
2023/11/23 06:22:01;;;;;;;15.70;8.25;;;7.70;99.90;;;;;;5045790;28;20128;-78
2023/11/23 06:24:27;;;;;;;18.15;9.75;;;7.80;99.90;;;;;;5023526;28;20743;-78
2023/11/23 06:26:52;;;;;;;26.20;9.73;;;7.80;99.90;;;;;;5024499;28;20044;-78
2023/11/23 06:29:18;;;;;;;25.55;14.60;;;7.80;99.90;;;;;;5038705;28;20160;-78
2023/11/23 06:31:44;;;;;;;20.92;11.52;;;7.80;99.90;;;;;;5040458;28;20056;-78
2023/11/23 06:34:09;;;;;;;18.88;9.07;;;7.80;99.90;;;;;;5037500;28;20036;-78
2023/11/23 06:36:38;;;;;;;27.63;15.25;;;7.80;99.90;;;;;;5052477;28;20044;-78
2023/11/23 06:39:04;;;;;;;37.92;19.25;;;7.80;99.90;;;;;;5021963;28;20100;-78
2023/11/23 06:41:32;;;;;;;26.38;14.93;;;7.90;99.90;;;;;;5006414;28;20131;-78
2023/11/23 06:43:57;;;;;;;26.80;13.48;;;7.80;99.90;;;;;;5008588;28;20079;-78
2023/11/23 06:46:23;;;;;;;28.63;16.05;;;7.80;99.90;;;;;;5011931;28;20393;-78
2023/11/23 06:48:49;;;;;;;19.80;8.63;;;7.90;99.90;;;;;;5049451;28;20463;-78
2023/11/23 06:51:14;;;;;;;27.25;14.40;;;7.90;99.90;;;;;;5012506;28;20029;-78
2023/11/23 06:53:46;;;;;;;21.90;12.60;;;7.90;99.90;;;;;;5016230;28;20029;-78
2023/11/23 06:56:15;;;;;;;22.85;12.93;;;7.90;99.90;;;;;;5034924;28;20125;-79
2023/11/23 06:58:41;;;;;;;23.38;13.85;;;7.90;99.90;;;;;;5016114;28;20040;-78
2023/11/23 07:01:08;;;;;;;39.30;14.82;;;7.90;99.90;;;;;;5034056;28;20037;-79
2023/11/23 07:03:33;;;;;;;30.38;16.67;;;7.90;99.90;;;;;;5056397;28;20389;-79
2023/11/23 07:05:59;;;;;;;34.67;19.48;;;8.00;99.90;;;;;;5052973;28;20025;-79
2023/11/23 07:08:25;;;;;;;32.92;16.23;;;8.00;99.90;;;;;;5050929;28;20032;-78
2023/11/23 07:10:50;;;;;;;22.17;8.70;;;8.00;99.90;;;;;;5050355;28;20041;-79
2023/11/23 07:13:16;;;;;;;19.58;11.45;;;8.10;99.90;;;;;;5035840;28;20079;-79
2023/11/23 07:15:42;;;;;;;24.85;13.13;;;8.10;99.90;;;;;;5036864;28;20032;-79
2023/11/23 07:18:07;;;;;;;24.42;13.40;;;8.10;99.90;;;;;;5052899;28;20044;-79
2023/11/23 07:20:33;;;;;;;15.00;9.70;;;8.10;99.90;;;;;;5033354;28;20025;-79
2023/11/23 07:22:58;;;;;;;30.30;14.85;;;8.10;99.90;;;;;;5019018;28;20337;-78
2023/11/23 07:25:24;;;;;;;30.10;15.68;;;8.10;99.90;;;;;;5048686;28;20028;-78
2023/11/23 07:27:49;;;;;;;37.83;21.27;;;8.20;99.90;;;;;;5051025;28;20036;-79
2023/11/23 07:30:15;;;;;;;33.58;19.05;;;8.10;99.90;;;;;;5047347;28;20144;-79
2023/11/23 07:32:41;;;;;;;33.13;19.63;;;8.20;99.90;;;;;;5034870;28;20037;-78
2023/11/23 07:35:07;;;;;;;22.15;13.68;;;8.20;99.90;;;;;;5047353;28;20271;-78
2023/11/23 07:37:35;;;;;;;20.02;9.70;;;8.20;99.90;;;;;;5017664;28;20056;-79
2023/11/23 07:40:07;;;;;;;27.42;14.10;;;8.20;99.90;;;;;;5032063;28;20590;-78
2023/11/23 07:42:33;;;;;;;22.60;14.00;;;8.20;99.90;;;;;;5034826;28;20103;-78
2023/11/23 07:44:58;;;;;;;29.23;14.45;;;8.20;99.90;;;;;;5048266;28;20040;-79
2023/11/23 07:47:24;;;;;;;32.90;14.05;;;8.30;99.90;;;;;;5046730;28;20436;-77
2023/11/23 07:49:50;;;;;;;27.27;12.43;;;8.30;99.90;;;;;;5041950;28;20147;-77
2023/11/23 07:52:16;;;;;;;20.00;9.23;;;8.30;99.90;;;;;;5025924;28;20493;-78
2023/11/23 07:54:41;;;;;;;33.92;19.65;;;8.30;99.90;;;;;;5033438;28;20029;-78
2023/11/23 07:57:07;;;;;;;22.55;9.23;;;8.30;99.90;;;;;;5027053;28;20026;-78
2023/11/23 07:59:36;;;;;;;33.53;20.27;;;8.40;99.90;;;;;;5028129;28;20090;-78
2023/11/23 08:02:02;;;;;;;30.15;19.15;;;8.40;99.90;;;;;;5040896;28;20044;-79
2023/11/23 08:04:28;;;;;;;23.30;15.15;;;8.40;99.90;;;;;;5029050;28;20036;-79
2023/11/23 08:06:54;;;;;;;26.95;15.18;;;8.40;99.90;;;;;;5029706;28;20079;-79
2023/11/23 08:09:20;;;;;;;26.23;15.75;;;8.40;99.90;;;;;;5043888;28;20029;-79
2023/11/23 08:11:47;;;;;;;20.52;12.07;;;8.40;99.90;;;;;;5014135;28;20503;-78
2023/11/23 08:14:13;;;;;;;30.77;17.23;;;8.50;99.90;;;;;;5045109;28;20037;-76
2023/11/23 08:16:38;;;;;;;24.50;12.57;;;8.50;99.90;;;;;;5028623;28;20031;-77
2023/11/23 08:19:04;;;;;;;23.92;14.88;;;8.50;99.90;;;;;;5012950;28;20480;-77
2023/11/23 08:21:30;;;;;;;31.42;18.25;;;8.50;99.90;;;;;;5027671;28;20090;-77
2023/11/23 08:23:56;;;;;;;32.67;18.13;;;8.60;99.90;;;;;;5028853;28;20033;-76
2023/11/23 08:26:21;;;;;;;14.13;8.63;;;8.50;99.90;;;;;;5026120;28;20033;-77
2023/11/23 08:28:49;;;;;;;23.33;12.13;;;8.60;99.90;;;;;;5028852;28;20025;-78
2023/11/23 08:31:14;;;;;;;31.02;17.13;;;8.70;99.90;;;;;;5029408;28;20639;-76
2023/11/23 08:33:40;;;;;;;22.75;13.95;;;8.70;99.90;;;;;;5046293;28;20427;-76
2023/11/23 08:36:06;;;;;;;23.13;13.48;;;8.70;99.90;;;;;;5043480;28;20044;-77
2023/11/23 08:38:31;;;;;;;28.90;16.75;;;8.70;99.90;;;;;;5013405;28;20351;-76
2023/11/23 08:40:57;;;;;;;28.77;15.35;;;8.70;99.90;;;;;;5026715;28;20033;-77
2023/11/23 08:43:22;;;;;;;19.60;11.15;;;8.80;99.90;;;;;;5042883;28;20388;-77
2023/11/23 08:45:48;;;;;;;18.10;9.48;;;8.80;99.90;;;;;;5027275;28;20567;-76
2023/11/23 08:48:15;;;;;;;21.73;14.70;;;8.80;99.90;;;;;;5041828;28;20123;-77
2023/11/23 08:50:42;;;;;;;29.58;14.75;;;8.80;99.90;;;;;;5028847;28;20048;-76
2023/11/23 08:53:07;;;;;;;23.25;14.45;;;8.80;99.90;;;;;;5013686;28;20033;-76
2023/11/23 08:55:33;;;;;;;20.70;12.73;;;8.90;99.90;;;;;;5029240;28;20049;-77
2023/11/23 08:57:58;;;;;;;24.05;11.85;;;8.90;99.90;;;;;;5028058;28;20120;-77
2023/11/23 09:00:25;;;;;;;17.60;10.10;;;8.90;99.90;;;;;;5025490;28;20388;-76
2023/11/23 09:02:53;;;;;;;19.70;9.88;;;8.90;99.90;;;;;;5044809;28;20056;-77
2023/11/23 09:05:19;;;;;;;25.65;13.75;;;9.00;99.90;;;;;;5029659;28;20029;-77
2023/11/23 09:07:44;;;;;;;27.05;13.07;;;9.00;99.90;;;;;;5013015;28;20037;-76
2023/11/23 09:10:10;;;;;;;19.67;11.15;;;9.00;99.90;;;;;;5031034;28;20036;-77
2023/11/23 09:12:36;;;;;;;18.70;10.32;;;9.00;99.90;;;;;;5012596;28;20481;-76
2023/11/23 09:15:04;;;;;;;22.75;12.43;;;9.10;99.90;;;;;;5012303;28;20029;-77
2023/11/23 09:17:30;;;;;;;19.50;12.32;;;9.10;99.90;;;;;;5041146;28;20095;-77
2023/11/23 09:19:57;;;;;;;22.38;13.15;;;9.10;99.90;;;;;;5042421;28;20659;-77
2023/11/23 09:22:24;;;;;;;18.60;10.25;;;9.10;99.90;;;;;;5046754;28;20040;-77
2023/11/23 09:24:50;;;;;;;22.83;12.45;;;9.10;99.90;;;;;;5023502;28;20467;-77
2023/11/23 09:27:16;;;;;;;17.73;10.60;;;9.10;99.90;;;;;;5043274;28;20033;-77
2023/11/23 09:29:41;;;;;;;17.50;11.60;;;9.20;99.90;;;;;;5031351;28;20515;-76
2023/11/23 09:32:08;;;;;;;26.30;17.20;;;9.20;99.90;;;;;;5013351;28;20040;-77
2023/11/23 09:34:34;;;;;;;14.57;8.75;;;9.20;99.90;;;;;;5044186;28;20127;-77
2023/11/23 09:36:59;;;;;;;25.00;14.23;;;9.20;99.90;;;;;;5044651;28;20063;-76
2023/11/23 09:39:25;;;;;;;21.00;10.93;;;9.30;99.90;;;;;;5044662;28;20084;-79
2023/11/23 09:41:52;;;;;;;26.83;14.73;;;9.30;99.90;;;;;;5012157;28;20538;-78
2023/11/23 09:44:18;;;;;;;21.17;14.23;;;9.30;99.90;;;;;;5010625;28;20101;-79
2023/11/23 09:46:44;;;;;;;26.33;14.07;;;9.30;99.90;;;;;;5027009;28;20037;-79
2023/11/23 09:49:11;;;;;;;29.00;14.65;;;9.30;99.90;;;;;;5027415;28;20397;-79
2023/11/23 09:51:36;;;;;;;28.58;16.48;;;9.40;99.90;;;;;;5027135;28;20037;-79
2023/11/23 09:54:03;;;;;;;24.08;14.10;;;9.40;99.90;;;;;;5011804;28;20047;-79
2023/11/23 09:56:29;;;;;;;23.67;14.80;;;9.40;99.90;;;;;;5012389;28;20043;-79
2023/11/23 09:58:55;;;;;;;27.88;12.98;;;9.40;99.90;;;;;;5026205;28;20056;-78
2023/11/23 10:01:21;;;;;;;27.20;16.10;;;9.40;99.90;;;;;;5027747;28;20412;-79
2023/11/23 10:03:50;;;;;;;18.15;8.70;;;9.40;99.90;;;;;;5027800;28;20025;-81
2023/11/23 10:06:16;;;;;;;21.38;12.45;;;9.40;99.90;;;;;;5043257;28;20033;-79
2023/11/23 10:08:42;;;;;;;20.98;12.27;;;9.50;99.90;;;;;;5010252;28;20454;-79
2023/11/23 10:11:08;;;;;;;21.73;13.25;;;9.50;99.90;;;;;;5044485;28;20037;-79
2023/11/23 10:13:33;;;;;;;26.45;15.63;;;9.50;99.90;;;;;;5042626;28;20500;-80
2023/11/23 10:16:00;;;;;;;24.83;10.65;;;9.50;99.90;;;;;;5043146;28;20397;-79
2023/11/23 10:18:39;;;;;;;19.17;11.15;;;9.50;99.90;;;;;;5008566;28;20025;-79
2023/11/23 10:21:06;;;;;;;8.75;5.43;;;9.50;99.90;;;;;;5040351;28;20040;-81
2023/11/23 10:23:33;;;;;;;20.60;12.88;;;9.50;99.90;;;;;;5027229;28;20488;-81
2023/11/23 10:25:59;;;;;;;27.52;15.23;;;9.50;99.90;;;;;;5026700;28;20075;-80
2023/11/23 10:28:24;;;;;;;17.27;9.13;;;9.60;99.90;;;;;;5041886;28;20037;-80
2023/11/23 10:30:50;;;;;;;23.50;16.10;;;9.60;99.90;;;;;;5017521;28;20033;-80
2023/11/23 10:33:16;;;;;;;32.00;16.90;;;9.60;99.90;;;;;;5011817;28;20087;-80
2023/11/23 10:35:43;;;;;;;24.35;12.85;;;9.60;99.90;;;;;;5026080;28;20459;-79
2023/11/23 10:38:10;;;;;;;24.33;15.85;;;9.60;99.90;;;;;;5041481;28;20046;-81
2023/11/23 10:40:36;;;;;;;28.90;16.65;;;9.60;99.90;;;;;;5040518;28;20582;-81
2023/11/23 10:43:02;;;;;;;20.27;11.00;;;9.60;99.90;;;;;;5010433;28;20037;-80
2023/11/23 10:45:28;;;;;;;26.95;16.90;;;9.60;99.90;;;;;;5035248;28;20036;-80
2023/11/23 10:47:54;;;;;;;19.17;11.05;;;9.60;99.90;;;;;;5003253;28;20040;-77
2023/11/23 10:50:21;;;;;;;22.65;13.98;;;9.60;99.90;;;;;;5027813;28;20033;-77
2023/11/23 10:52:48;;;;;;;32.45;16.30;;;9.70;99.90;;;;;;5011535;28;20025;-78
2023/11/23 10:55:13;;;;;;;21.90;12.88;;;9.60;99.90;;;;;;4680490;28;9999718;-78
2023/11/23 10:57:46;;;;;;;29.35;14.10;;;9.70;99.90;;;;;;5041826;28;20040;-78
2023/11/23 11:00:24;;;;;;;22.80;15.60;;;9.60;99.90;;;;;;5021430;28;20033;-78
2023/11/23 11:02:51;;;;;;;16.58;9.50;;;9.70;99.90;;;;;;5027263;28;20626;-79
2023/11/23 11:05:27;;;;;;;24.58;13.15;;;9.70;99.90;;;;;;5008835;28;20033;-78
2023/11/23 11:08:04;;;;;;;25.40;12.70;;;9.80;99.90;;;;;;5011572;28;20041;-78
2023/11/23 11:10:42;;;;;;;27.05;13.13;;;9.70;99.90;;;;;;4991761;28;20045;-78
2023/11/23 11:13:10;;;;;;;24.55;16.35;;;9.70;99.90;;;;;;5029401;28;20914;-78
2023/11/23 11:15:35;;;;;;;18.73;12.82;;;9.70;99.90;;;;;;5015842;28;20035;-78
2023/11/23 11:18:07;;;;;;;24.83;12.73;;;9.70;99.90;;;;;;5007506;28;20033;-79
2023/11/23 11:20:39;;;;;;;17.88;8.77;;;9.80;99.90;;;;;;5030387;28;20039;-78
2023/11/23 11:23:04;;;;;;;15.23;8.98;;;9.80;99.90;;;;;;5028563;28;20393;-78
2023/11/23 11:25:39;;;;;;;17.73;9.68;;;9.80;99.90;;;;;;5012079;28;20036;-78
2023/11/23 11:28:09;;;;;;;14.85;9.82;;;9.80;99.90;;;;;;5026879;28;20048;-78
2023/11/23 11:30:37;;;;;;;15.82;8.80;;;9.80;99.90;;;;;;5012724;28;20030;-78
2023/11/23 11:33:07;;;;;;;19.95;9.52;;;9.80;99.90;;;;;;5025919;28;20230;-78
2023/11/23 11:35:32;;;;;;;15.32;8.40;;;9.90;99.90;;;;;;5029094;28;20072;-78
2023/11/23 11:37:59;;;;;;;17.02;10.48;;;9.90;99.90;;;;;;5046472;28;20056;-78
2023/11/23 11:40:25;;;;;;;18.85;10.48;;;9.90;99.90;;;;;;5015104;28;20120;-78
2023/11/23 11:42:52;;;;;;;15.45;10.02;;;9.90;99.90;;;;;;5020979;28;20040;-79
2023/11/23 11:45:19;;;;;;;19.48;11.95;;;9.90;99.90;;;;;;5029329;28;20033;-78
2023/11/23 11:47:48;;;;;;;19.23;11.57;;;10.00;99.90;;;;;;5018808;28;20049;-79
2023/11/23 11:50:13;;;;;;;11.88;7.03;;;10.00;99.90;;;;;;5005368;28;20482;-78
2023/11/23 11:52:39;;;;;;;19.95;14.15;;;10.00;99.90;;;;;;5030388;28;20431;-78
2023/11/23 11:55:07;;;;;;;15.98;9.75;;;10.00;99.90;;;;;;5004013;28;20883;-78
2023/11/23 11:57:39;;;;;;;11.05;8.15;;;10.00;99.90;;;;;;4990829;28;20037;-78
2023/11/23 12:00:07;;;;;;;21.08;10.63;;;10.10;99.90;;;;;;5025963;28;20584;-81
2023/11/23 12:02:33;;;;;;;13.02;9.30;;;10.10;99.90;;;;;;5029167;28;20492;-83
2023/11/23 12:04:59;;;;;;;14.07;10.85;;;10.10;99.90;;;;;;5045564;28;20763;-83
2023/11/23 12:07:26;;;;;;;15.77;9.60;;;10.10;99.90;;;;;;5015701;28;20120;-83
2023/11/23 12:09:55;;;;;;;12.90;8.57;;;10.10;99.90;;;;;;5019595;28;20135;-83
2023/11/23 12:12:23;;;;;;;11.38;7.47;;;10.10;99.90;;;;;;5025669;28;20030;-82
2023/11/23 12:14:51;;;;;;;15.73;6.30;;;10.10;99.90;;;;;;5043021;28;20850;-83
2023/11/23 12:17:19;;;;;;;13.77;7.13;;;10.20;99.90;;;;;;5022647;28;20021;-82
2023/11/23 12:19:57;;;;;;;13.15;9.38;;;10.20;99.90;;;;;;5032236;28;20416;-81
2023/11/23 12:22:23;;;;;;;20.67;11.10;;;10.20;99.90;;;;;;5046497;28;20050;-82
2023/11/23 12:24:49;;;;;;;14.18;6.90;;;10.20;99.90;;;;;;5044804;28;20055;-83
2023/11/23 12:27:14;;;;;;;9.88;6.90;;;10.20;99.90;;;;;;5036638;28;20456;-81
2023/11/23 12:29:43;;;;;;;13.95;10.27;;;10.10;99.90;;;;;;5012787;28;20037;-82
2023/11/23 12:32:14;;;;;;;11.93;6.57;;;10.20;99.90;;;;;;5035424;28;20036;-81
2023/11/23 12:34:40;;;;;;;9.70;5.65;;;10.20;99.90;;;;;;5045757;28;20162;-82
2023/11/23 12:37:08;;;;;;;13.82;6.50;;;10.20;99.90;;;;;;5020801;28;20124;-83